Taouey — ZCAY9 — position and weather

sailwx.info

Track history (hours):
 
Tides and Currents Weather Stations Pressure Air Temp Water Temp Dewpoint Dewpoint Depression Visibility Wind Speed Wind Dir Waves Ship Positions

Taouey

Last reported at 2015-May-25 17:33 UTC. Time now 2015-May-25 17:39 UTC.
Position N 43°44' E 007°26'.

Length 58 m; draft 4 m.

MMSI: 310079000.

Date/timePositionNaut miles runAvg speedWind from/ knotsBaromVisibWave heightAir tempDewpointWater temp
2015-May-25 17:33N 43°44' E 007°26'0 0.0
2015-May-25 16:33N 43°44' E 007°26'0 0.0
2015-May-25 15:33N 43°44' E 007°26'0 0.0
2015-May-25 14:33N 43°44' E 007°26'0 0.0
2015-May-25 13:33N 43°44' E 007°26'0 0.0
2015-May-25 12:33N 43°44' E 007°26'1 0.7
2015-May-25 11:33N 43°44' E 007°27'0 0.0
2015-May-25 10:33N 43°44' E 007°27'0 0.0
2015-May-25 09:33N 43°44' E 007°27'0 0.0
2015-May-24 22:09N 43°44' E 007°27'0 0.0
2015-May-24 19:28N 43°44' E 007°27'0 0.0
2015-May-24 18:17N 43°44' E 007°27'0 0.0
2015-May-24 17:29N 43°44' E 007°27'3 0.1
2015-May-23 07:08N 43°42' E 007°24'2 1.2
2015-May-23 05:30N 43°42' E 007°21'0 0.0
2015-May-23 04:22N 43°42' E 007°21'0 0.0
2015-May-23 03:30N 43°42' E 007°21'0 0.0
2015-May-23 01:07N 43°42' E 007°21'0 0.0
2015-May-23 00:18N 43°42' E 007°21'0 0.0
2015-May-22 22:31N 43°42' E 007°21'0 0.0
2015-May-22 21:05N 43°42' E 007°21'0 0.0
2015-May-22 20:29N 43°42' E 007°21'0 0.0
2015-May-22 19:14N 43°42' E 007°21'0 0.0
2015-May-22 18:25N 43°42' E 007°21'0 0.0
2015-May-22 17:11N 43°42' E 007°21'4 5.6
2015-May-22 16:33N 43°39' E 007°19'1410.9
2015-May-22 15:19N 43°32' E 007°03'0 0.1
2015-May-22 14:33N 43°32' E 007°03'0 0.0
2015-May-22 13:30N 43°32' E 007°03'1 1.3
2015-May-22 12:25N 43°31' E 007°02'1 1.1
2015-May-22 11:27N 43°32' E 007°02'0 0.0
2015-May-22 10:29N 43°32' E 007°02'0 0.0
2015-May-22 08:30N 43°32' E 007°02'0 0.0
2015-May-22 07:33N 43°32' E 007°02'0 0.0
2015-May-22 06:33N 43°32' E 007°02'0 0.0
2015-May-22 05:33N 43°32' E 007°02'0 0.0
2015-May-22 04:33N 43°32' E 007°02'0 0.0
2015-May-22 03:33N 43°32' E 007°02'0 0.0
2015-May-22 02:33N 43°32' E 007°02'0 0.0
2015-May-22 01:33N 43°32' E 007°02'0 0.0
2015-May-22 00:33N 43°32' E 007°02'0 0.0
2015-May-21 23:33N 43°32' E 007°02'0 0.0
2015-May-21 22:33N 43°32' E 007°02'0 0.0
2015-May-21 21:29N 43°32' E 007°02'0 0.0
2015-May-21 19:08N 43°32' E 007°02'0 0.0
2015-May-21 18:33N 43°32' E 007°02'0 0.0
2015-May-21 17:09N 43°32' E 007°02'0 0.0
2015-May-21 16:33N 43°32' E 007°02'0 0.0
2015-May-21 15:33N 43°32' E 007°02'0 0.0
2015-May-21 14:33N 43°32' E 007°02'0 0.0
2015-May-21 13:33N 43°32' E 007°02'2 0.4
2015-May-21 08:33N 43°31' E 007°04'1 0.7
2015-May-21 07:33N 43°32' E 007°03'0 0.1
2015-May-21 06:33N 43°32' E 007°03'0 0.0
2015-May-21 05:33N 43°32' E 007°03'0 0.1
2015-May-21 04:33N 43°32' E 007°03'0 0.0
2015-May-21 03:33N 43°32' E 007°03'0 0.0
2015-May-21 02:33N 43°32' E 007°03'0 0.0
2015-May-21 01:33N 43°32' E 007°03'0 0.1
2015-May-21 00:33N 43°32' E 007°03'0 0.0
2015-May-20 23:33N 43°32' E 007°03'0 0.0
2015-May-20 22:33N 43°32' E 007°03'0 0.0
2015-May-20 21:33N 43°32' E 007°03'0 0.0
2015-May-20 20:31N 43°32' E 007°03'0 0.0
2015-May-20 19:33N 43°32' E 007°03'0 0.0
2015-May-20 18:33N 43°32' E 007°03'0 0.0
2015-May-20 17:33N 43°32' E 007°03'0 0.0
2015-May-20 16:33N 43°32' E 007°03'0 0.0
2015-May-20 15:28N 43°32' E 007°03'0 0.0
2015-May-20 14:33N 43°32' E 007°03'0 0.0
2015-May-20 13:33N 43°32' E 007°03'0 0.0
2015-May-20 12:26N 43°32' E 007°03'0 0.0
2015-May-20 11:29N 43°32' E 007°03'0 0.0
2015-May-20 10:33N 43°32' E 007°03'0 0.0
2015-May-20 09:33N 43°32' E 007°03'0 0.0
2015-May-20 08:33N 43°32' E 007°03'0 0.0
2015-May-20 07:33N 43°32' E 007°03'1 1.0
2015-May-20 06:33N 43°31' E 007°05'1212.0
2015-May-20 05:33N 43°30' E 007°21'3812.5
2015-May-20 02:32N 43°35' E 008°13'1212.1
2015-May-20 01:34N 43°36' E 008°29'1212.4
2015-May-20 00:33N 43°27' E 008°41'1212.4
2015-May-19 23:33N 43°18' E 008°53'1412.0
2015-May-19 22:24N 43°09' E 009°06'1011.4
2015-May-19 21:29N 43°04' E 009°19'1311.0
2015-May-19 20:21N 42°55' E 009°32'1012.7
2015-May-19 19:33N 42°45' E 009°33'26112.2
2015-May-18 22:13N 38°25' E 009°54'274 6.4
2015-May-17 03:30N 42°58' E 009°33'1212.4
2015-May-17 02:34N 43°06' E 009°21'  
Track history (hours):
 
Tides and Currents Weather Stations Pressure Air Temp Water Temp Dewpoint Dewpoint Depression Visibility Wind Speed Wind Dir Waves Ship Positions

Taouey

Last reported at 2015-May-25 17:33 UTC. Time now 2015-May-25 17:39 UTC.
Position N 43°44' E 007°26'.

Length 58 m; draft 4 m.

MMSI: 310079000.

Date/timePositionNaut miles runAvg speedWind from/ knotsBaromVisibWave heightAir tempDewpointWater temp
2015-May-25 17:33N 43°44' E 007°26'0 0.0
2015-May-25 16:33N 43°44' E 007°26'0 0.0
2015-May-25 15:33N 43°44' E 007°26'0 0.0
2015-May-25 14:33N 43°44' E 007°26'0 0.0
2015-May-25 13:33N 43°44' E 007°26'0 0.0
2015-May-25 12:33N 43°44' E 007°26'1 0.7
2015-May-25 11:33N 43°44' E 007°27'0 0.0
2015-May-25 10:33N 43°44' E 007°27'0 0.0
2015-May-25 09:33N 43°44' E 007°27'0 0.0
2015-May-24 22:09N 43°44' E 007°27'0 0.0
2015-May-24 19:28N 43°44' E 007°27'0 0.0
2015-May-24 18:17N 43°44' E 007°27'0 0.0
2015-May-24 17:29N 43°44' E 007°27'3 0.1
2015-May-23 07:08N 43°42' E 007°24'2 1.2
2015-May-23 05:30N 43°42' E 007°21'0 0.0
2015-May-23 04:22N 43°42' E 007°21'0 0.0
2015-May-23 03:30N 43°42' E 007°21'0 0.0
2015-May-23 01:07N 43°42' E 007°21'0 0.0
2015-May-23 00:18N 43°42' E 007°21'0 0.0
2015-May-22 22:31N 43°42' E 007°21'0 0.0
2015-May-22 21:05N 43°42' E 007°21'0 0.0
2015-May-22 20:29N 43°42' E 007°21'0 0.0
2015-May-22 19:14N 43°42' E 007°21'0 0.0
2015-May-22 18:25N 43°42' E 007°21'0 0.0
2015-May-22 17:11N 43°42' E 007°21'4 5.6
2015-May-22 16:33N 43°39' E 007°19'1410.9
2015-May-22 15:19N 43°32' E 007°03'0 0.1
2015-May-22 14:33N 43°32' E 007°03'0 0.0
2015-May-22 13:30N 43°32' E 007°03'1 1.3
2015-May-22 12:25N 43°31' E 007°02'1 1.1
2015-May-22 11:27N 43°32' E 007°02'0 0.0
2015-May-22 10:29N 43°32' E 007°02'0 0.0
2015-May-22 08:30N 43°32' E 007°02'0 0.0
2015-May-22 07:33N 43°32' E 007°02'0 0.0
2015-May-22 06:33N 43°32' E 007°02'0 0.0
2015-May-22 05:33N 43°32' E 007°02'0 0.0
2015-May-22 04:33N 43°32' E 007°02'0 0.0
2015-May-22 03:33N 43°32' E 007°02'0 0.0
2015-May-22 02:33N 43°32' E 007°02'0 0.0
2015-May-22 01:33N 43°32' E 007°02'0 0.0
2015-May-22 00:33N 43°32' E 007°02'0 0.0
2015-May-21 23:33N 43°32' E 007°02'0 0.0
2015-May-21 22:33N 43°32' E 007°02'0 0.0
2015-May-21 21:29N 43°32' E 007°02'0 0.0
2015-May-21 19:08N 43°32' E 007°02'0 0.0
2015-May-21 18:33N 43°32' E 007°02'0 0.0
2015-May-21 17:09N 43°32' E 007°02'0 0.0
2015-May-21 16:33N 43°32' E 007°02'0 0.0
2015-May-21 15:33N 43°32' E 007°02'0 0.0
2015-May-21 14:33N 43°32' E 007°02'0 0.0
2015-May-21 13:33N 43°32' E 007°02'2 0.4
2015-May-21 08:33N 43°31' E 007°04'1 0.7
2015-May-21 07:33N 43°32' E 007°03'0 0.1
2015-May-21 06:33N 43°32' E 007°03'0 0.0
2015-May-21 05:33N 43°32' E 007°03'0 0.1
2015-May-21 04:33N 43°32' E 007°03'0 0.0
2015-May-21 03:33N 43°32' E 007°03'0 0.0
2015-May-21 02:33N 43°32' E 007°03'0 0.0
2015-May-21 01:33N 43°32' E 007°03'0 0.1
2015-May-21 00:33N 43°32' E 007°03'0 0.0
2015-May-20 23:33N 43°32' E 007°03'0 0.0
2015-May-20 22:33N 43°32' E 007°03'0 0.0
2015-May-20 21:33N 43°32' E 007°03'0 0.0
2015-May-20 20:31N 43°32' E 007°03'0 0.0
2015-May-20 19:33N 43°32' E 007°03'0 0.0
2015-May-20 18:33N 43°32' E 007°03'0 0.0
2015-May-20 17:33N 43°32' E 007°03'0 0.0
2015-May-20 16:33N 43°32' E 007°03'0 0.0
2015-May-20 15:28N 43°32' E 007°03'0 0.0
2015-May-20 14:33N 43°32' E 007°03'0 0.0
2015-May-20 13:33N 43°32' E 007°03'0 0.0
2015-May-20 12:26N 43°32' E 007°03'0 0.0
2015-May-20 11:29N 43°32' E 007°03'0 0.0
2015-May-20 10:33N 43°32' E 007°03'0 0.0
2015-May-20 09:33N 43°32' E 007°03'0 0.0
2015-May-20 08:33N 43°32' E 007°03'0 0.0
2015-May-20 07:33N 43°32' E 007°03'1 1.0
2015-May-20 06:33N 43°31' E 007°05'1212.0
2015-May-20 05:33N 43°30' E 007°21'3812.5
2015-May-20 02:32N 43°35' E 008°13'1212.1
2015-May-20 01:34N 43°36' E 008°29'1212.4
2015-May-20 00:33N 43°27' E 008°41'1212.4
2015-May-19 23:33N 43°18' E 008°53'1412.0
2015-May-19 22:24N 43°09' E 009°06'1011.4
2015-May-19 21:29N 43°04' E 009°19'1311.0
2015-May-19 20:21N 42°55' E 009°32'1012.7
2015-May-19 19:33N 42°45' E 009°33'26112.2
2015-May-18 22:13N 38°25' E 009°54'274 6.4
2015-May-17 03:30N 42°58' E 009°33'1212.4
2015-May-17 02:34N 43°06' E 009°21'  

Dump ship's entire track history